الصفحة الرئيسية
METAR-TAF:

METAR-TAF

مطار :

كلوفيس, نيومكسيكو, الولايات المتحدة

دائرة عرض: 34-26N, خط طول: 103-05W, ارتفاع: 1284 متر

مراقبة الطقس الحالي

تاريخ ووقت الإصدار 38 دقيقة قبل الساعة 01:56UTC
ريح 10 عقدة من الغرب/الجنوب الغربي
درجة الحرارة 8°درجة مئوية
الرطوبة 53%
ضغط 1016 hPa
الرؤية: 16.1 كم
سماء صافية

METAR: KCVN 120156Z AUTO 25010KT 10SM CLR 08/M01 A2999 RMK AO2 SLP159 T00831011

زمن: 19:34 (02:34 UTC)


TAF: مفقودة

أرصاد الطقس والتوقعات من أكثر من 4000 مطار (تقارير الطقس للمطار METAR والتنبؤ بالطقس بالمطارTAF).

المحطات المتاحة هي النقط الصفراء والحمراء على الخريطة.

حرك المؤشر فوق النقطة لمعرفة اسم المحطة.

ثم انقر لمعرفة أرصاد وتوقعات الطقس.

لتغيير الخارطة: اضغط على الأزرار الخضراء مع رمز الصليب الأسود للتكبير. على الزر الأخضر مع شرطة للتصغير، أو على الأسهم الخضراء للخرائط المجاورة.


METAR-TAF: